createdAt,value
2018-04-16T16:28:00.743Z,53.20
2018-04-16T16:30:28.474Z,53.20
2018-04-16T16:32:56.191Z,53.00
2018-04-16T16:35:23.864Z,53.00
2018-04-16T16:37:52.240Z,53.20
2018-04-16T16:40:19.987Z,53.20
2018-04-16T16:42:47.745Z,53.20
2018-04-16T16:45:15.332Z,52.90
2018-04-16T16:47:43.733Z,53.80
2018-04-16T16:50:11.953Z,53.80
2018-04-16T16:52:40.436Z,53.30
2018-04-16T16:55:08.030Z,53.30
2018-04-16T16:57:35.703Z,53.50
2018-04-16T17:00:03.347Z,53.30
2018-04-16T17:02:30.999Z,53.40
2018-04-16T17:04:58.779Z,53.30
2018-04-16T17:07:26.568Z,53.20
2018-04-16T17:09:54.303Z,53.20
2018-04-16T17:12:21.994Z,53.30
2018-04-16T17:14:49.795Z,53.60
2018-04-16T17:17:22.961Z,53.70
2018-04-16T17:20:01.927Z,53.70
2018-04-16T17:22:39.361Z,54.10
2018-04-16T17:25:11.471Z,53.90
2018-04-16T17:27:52.177Z,54.00
2018-04-16T17:30:22.811Z,53.90
2018-04-16T17:33:00.929Z,53.70
2018-04-16T17:35:32.142Z,54.10
2018-04-16T17:38:05.964Z,54.20
2018-04-16T17:40:34.671Z,53.80
2018-04-16T17:43:13.205Z,54.10
2018-04-16T17:45:42.197Z,54.00
2018-04-16T17:48:11.244Z,54.30
2018-04-16T17:50:49.427Z,54.60
2018-04-16T17:53:25.186Z,54.40
2018-04-16T17:56:03.945Z,54.50
2018-04-16T17:58:42.956Z,54.80
2018-04-16T18:01:21.586Z,54.70
2018-04-16T18:03:58.063Z,54.60
2018-04-16T18:06:34.992Z,54.60
2018-04-16T18:09:12.191Z,54.40
2018-04-16T18:11:44.831Z,54.40
2018-04-16T18:14:18.168Z,54.40
2018-04-16T18:16:55.232Z,54.40
2018-04-16T18:19:28.843Z,54.40
2018-04-16T18:22:07.999Z,54.40
2018-04-16T18:24:45.056Z,54.40
2018-04-16T18:27:22.694Z,54.40
2018-04-16T18:29:58.023Z,54.40
2018-04-16T18:32:39.159Z,54.40
2018-04-16T18:35:09.519Z,54.40
2018-04-16T18:37:49.420Z,54.40
2018-04-16T18:40:20.484Z,54.40
2018-04-16T18:43:00.429Z,54.50
2018-04-16T18:45:31.346Z,54.50
2018-04-16T18:48:06.156Z,54.60
2018-04-16T18:50:45.120Z,54.50
2018-04-16T18:53:15.917Z,54.60
2018-04-16T18:55:53.816Z,54.60
2018-04-16T18:58:32.449Z,54.60
2018-04-16T19:01:05.848Z,54.60
2018-04-16T19:03:45.458Z,54.70
2018-04-16T19:06:18.414Z,54.70
2018-04-16T19:08:49.977Z,54.70
2018-04-16T19:11:29.546Z,54.70
2018-04-16T19:14:02.988Z,54.70
2018-04-16T19:16:31.514Z,54.70
2018-04-16T19:18:59.868Z,54.90
2018-04-16T19:21:33.219Z,54.80
2018-04-16T19:24:00.816Z,55.50
2018-04-16T19:26:28.408Z,55.10
2018-04-16T19:28:56.021Z,55.20
2018-04-16T19:31:23.795Z,55.30
2018-04-16T19:33:56.868Z,55.40
2018-04-16T19:36:24.512Z,55.40
2018-04-16T19:38:52.152Z,55.40
2018-04-16T19:41:19.802Z,55.40
2018-04-16T19:43:47.404Z,55.40
2018-04-16T19:46:15.104Z,56.00
2018-04-16T19:48:48.359Z,55.30
2018-04-16T19:51:15.932Z,55.40
2018-04-16T19:53:43.812Z,55.50
2018-04-16T19:56:17.150Z,55.70
2018-04-16T19:58:44.871Z,55.80
2018-04-16T20:01:13.224Z,55.80
2018-04-16T20:03:46.510Z,55.70
2018-04-16T20:06:14.945Z,55.70
2018-04-16T20:08:42.544Z,55.80
2018-04-16T20:11:10.188Z,55.80
2018-04-16T20:13:37.833Z,55.80
2018-04-16T20:16:05.486Z,55.80
2018-04-16T20:18:33.079Z,55.80
2018-04-16T20:21:00.666Z,55.70
2018-04-16T20:23:29.028Z,55.90
2018-04-16T20:25:56.801Z,55.90
2018-04-16T20:28:25.169Z,56.00
2018-04-16T20:30:53.544Z,56.00
2018-04-16T20:33:21.903Z,56.00
2018-04-16T20:35:49.523Z,56.00
2018-04-16T20:38:17.179Z,56.00
2018-04-16T20:40:44.874Z,56.00
2018-04-16T20:43:12.532Z,56.10
2018-04-16T20:45:40.116Z,56.20
2018-04-16T20:48:07.700Z,56.10
2018-04-16T20:50:35.300Z,56.20
2018-04-16T20:53:02.893Z,56.20
2018-04-16T20:55:31.250Z,56.30
2018-04-16T20:57:58.860Z,56.20
2018-04-16T21:00:26.452Z,56.30
2018-04-16T21:02:54.042Z,56.20
2018-04-16T21:05:21.686Z,56.30
2018-04-16T21:07:49.327Z,56.40
2018-04-16T21:12:49.728Z,56.40
2018-04-16T21:15:17.313Z,56.40
2018-04-16T21:17:44.897Z,56.40
2018-04-16T21:20:12.487Z,56.40
2018-04-16T21:22:40.836Z,56.40
2018-04-16T21:25:08.418Z,56.40
2018-04-16T21:27:36.780Z,56.40
2018-04-16T21:30:04.364Z,56.40
2018-04-16T21:32:31.944Z,56.50
2018-04-16T21:34:59.552Z,56.50
2018-04-16T21:37:27.761Z,56.40
2018-04-16T21:39:55.346Z,56.50
2018-04-16T21:42:22.975Z,56.50
2018-04-16T21:44:50.568Z,56.40
2018-04-16T21:47:18.146Z,56.50
2018-04-16T21:49:45.736Z,56.50
2018-04-16T21:52:14.122Z,56.40
2018-04-16T21:54:42.513Z,56.40
2018-04-16T21:57:10.095Z,56.40
2018-04-16T21:59:37.672Z,56.40
2018-04-16T22:02:05.256Z,56.40
2018-04-16T22:04:33.678Z,56.40
2018-04-16T22:07:01.263Z,56.30
2018-04-16T22:09:28.881Z,56.30
2018-04-16T22:11:56.468Z,56.30
2018-04-16T22:14:24.055Z,56.40
2018-04-16T22:16:51.647Z,56.30
2018-04-16T22:19:19.231Z,56.30
2018-04-16T22:21:46.807Z,56.30
2018-04-16T22:24:14.392Z,56.20
2018-04-16T22:26:41.984Z,56.20
2018-04-16T22:29:09.574Z,56.30
2018-04-16T22:31:37.151Z,56.20
2018-04-16T22:34:04.773Z,56.10
2018-04-16T22:36:32.368Z,56.20
2018-04-16T22:38:59.945Z,56.20
2018-04-16T22:41:27.523Z,56.10
2018-04-16T22:43:55.116Z,56.70
2018-04-16T22:46:22.695Z,56.10
2018-04-16T22:48:51.039Z,56.10
2018-04-16T22:51:19.391Z,56.10
2018-04-16T22:53:47.738Z,56.00
2018-04-16T22:56:15.320Z,56.00
2018-04-16T22:58:43.676Z,56.10
2018-04-16T23:01:11.259Z,56.60
2018-04-16T23:03:39.606Z,56.00
2018-04-16T23:06:07.195Z,56.00
2018-04-16T23:08:35.580Z,55.90
2018-04-16T23:11:03.165Z,55.80
2018-04-16T23:13:30.745Z,56.00
2018-04-16T23:15:59.137Z,55.90
2018-04-16T23:18:26.753Z,55.90
2018-04-16T23:20:54.334Z,55.90
2018-04-16T23:23:21.912Z,55.90
2018-04-16T23:25:49.492Z,55.90
2018-04-16T23:28:17.839Z,55.80
2018-04-16T23:30:45.423Z,55.80
2018-04-16T23:33:13.774Z,55.80
2018-04-16T23:35:41.355Z,55.90
2018-04-16T23:38:09.704Z,55.80
2018-04-16T23:40:37.293Z,55.80
2018-04-16T23:43:05.644Z,55.80
2018-04-16T23:45:33.231Z,55.70
2018-04-16T23:48:01.580Z,55.80
2018-04-16T23:50:29.160Z,55.70
2018-04-16T23:52:57.511Z,55.80
2018-04-16T23:55:25.089Z,55.70
2018-04-16T23:57:53.441Z,55.70
